sensor_id;sensor_type;location;lat;lon;timestamp;temperature;humidity
16032;DHT22;8120;48.308;8.914;2022-10-16T00:01:33;14.90;79.60
16032;DHT22;8120;48.308;8.914;2022-10-16T00:04:02;14.80;80.00
16032;DHT22;8120;48.308;8.914;2022-10-16T00:06:31;14.70;80.30
16032;DHT22;8120;48.308;8.914;2022-10-16T00:08:59;14.80;79.80
16032;DHT22;8120;48.308;8.914;2022-10-16T00:11:31;14.80;79.60
16032;DHT22;8120;48.308;8.914;2022-10-16T00:14:01;14.80;79.80
16032;DHT22;8120;48.308;8.914;2022-10-16T00:16:30;14.90;79.20
16032;DHT22;8120;48.308;8.914;2022-10-16T00:18:58;14.90;79.10
16032;DHT22;8120;48.308;8.914;2022-10-16T00:21:28;14.90;78.90
16032;DHT22;8120;48.308;8.914;2022-10-16T00:23:58;15.00;78.70
16032;DHT22;8120;48.308;8.914;2022-10-16T00:26:29;14.90;79.20
16032;DHT22;8120;48.308;8.914;2022-10-16T00:28:57;14.70;79.70
16032;DHT22;8120;48.308;8.914;2022-10-16T00:31:26;14.80;79.30
16032;DHT22;8120;48.308;8.914;2022-10-16T00:33:54;14.80;79.20
16032;DHT22;8120;48.308;8.914;2022-10-16T00:36:23;14.70;79.70
16032;DHT22;8120;48.308;8.914;2022-10-16T00:38:52;14.80;79.10
16032;DHT22;8120;48.308;8.914;2022-10-16T00:41:23;14.80;79.20
16032;DHT22;8120;48.308;8.914;2022-10-16T00:43:53;15.00;78.30
16032;DHT22;8120;48.308;8.914;2022-10-16T00:46:24;14.90;79.10
16032;DHT22;8120;48.308;8.914;2022-10-16T00:48:57;14.90;79.10
16032;DHT22;8120;48.308;8.914;2022-10-16T00:51:30;14.90;78.80
16032;DHT22;8120;48.308;8.914;2022-10-16T00:53:59;14.90;78.90
16032;DHT22;8120;48.308;8.914;2022-10-16T00:56:28;14.90;79.30
16032;DHT22;8120;48.308;8.914;2022-10-16T00:58:58;14.90;79.30
16032;DHT22;8120;48.308;8.914;2022-10-16T01:01:26;14.90;79.40
16032;DHT22;8120;48.308;8.914;2022-10-16T01:03:55;14.90;79.00
16032;DHT22;8120;48.308;8.914;2022-10-16T01:06:24;14.90;78.90
16032;DHT22;8120;48.308;8.914;2022-10-16T01:09:11;14.90;79.00
16032;DHT22;8120;48.308;8.914;2022-10-16T01:11:47;15.00;79.00
16032;DHT22;8120;48.308;8.914;2022-10-16T01:14:22;15.00;78.60
16032;DHT22;8120;48.308;8.914;2022-10-16T01:16:55;15.00;79.70
16032;DHT22;8120;48.308;8.914;2022-10-16T01:19:46;14.70;80.80
16032;DHT22;8120;48.308;8.914;2022-10-16T01:22:19;14.60;81.40
16032;DHT22;8120;48.308;8.914;2022-10-16T01:24:53;14.40;83.20
16032;DHT22;8120;48.308;8.914;2022-10-16T01:27:26;14.30;84.20
16032;DHT22;8120;48.308;8.914;2022-10-16T01:29:58;14.20;84.30
16032;DHT22;8120;48.308;8.914;2022-10-16T01:32:33;14.20;84.90
16032;DHT22;8120;48.308;8.914;2022-10-16T01:35:05;14.10;85.80
16032;DHT22;8120;48.308;8.914;2022-10-16T01:37:39;14.00;86.50
16032;DHT22;8120;48.308;8.914;2022-10-16T01:40:11;14.00;86.80
16032;DHT22;8120;48.308;8.914;2022-10-16T01:42:42;14.00;86.50
16032;DHT22;8120;48.308;8.914;2022-10-16T01:45:14;14.00;87.00
16032;DHT22;8120;48.308;8.914;2022-10-16T01:47:45;14.00;86.90
16032;DHT22;8120;48.308;8.914;2022-10-16T01:50:15;14.00;86.70
16032;DHT22;8120;48.308;8.914;2022-10-16T01:52:46;14.00;86.60
16032;DHT22;8120;48.308;8.914;2022-10-16T01:55:19;14.00;87.20
16032;DHT22;8120;48.308;8.914;2022-10-16T01:57:50;14.00;86.80
16032;DHT22;8120;48.308;8.914;2022-10-16T02:00:20;14.00;86.40
16032;DHT22;8120;48.308;8.914;2022-10-16T02:02:54;14.00;86.30
16032;DHT22;8120;48.308;8.914;2022-10-16T02:05:26;14.10;85.20
16032;DHT22;8120;48.308;8.914;2022-10-16T02:07:55;14.10;86.10
16032;DHT22;8120;48.308;8.914;2022-10-16T02:10:27;14.10;85.60
16032;DHT22;8120;48.308;8.914;2022-10-16T02:13:03;14.20;85.10
16032;DHT22;8120;48.308;8.914;2022-10-16T02:15:32;14.30;84.00
16032;DHT22;8120;48.308;8.914;2022-10-16T02:18:01;14.40;83.50
16032;DHT22;8120;48.308;8.914;2022-10-16T02:20:34;14.30;83.50
16032;DHT22;8120;48.308;8.914;2022-10-16T02:23:03;14.30;84.60
16032;DHT22;8120;48.308;8.914;2022-10-16T02:25:33;14.20;85.60
16032;DHT22;8120;48.308;8.914;2022-10-16T02:28:07;14.10;86.40
16032;DHT22;8120;48.308;8.914;2022-10-16T02:30:39;14.20;84.50
16032;DHT22;8120;48.308;8.914;2022-10-16T02:33:10;14.30;83.70
16032;DHT22;8120;48.308;8.914;2022-10-16T02:35:41;14.50;81.60
16032;DHT22;8120;48.308;8.914;2022-10-16T02:38:09;14.70;80.30
16032;DHT22;8120;48.308;8.914;2022-10-16T02:40:38;14.80;79.90
16032;DHT22;8120;48.308;8.914;2022-10-16T02:43:07;14.70;80.30
16032;DHT22;8120;48.308;8.914;2022-10-16T02:45:36;14.50;81.80
16032;DHT22;8120;48.308;8.914;2022-10-16T02:48:04;14.40;82.50
16032;DHT22;8120;48.308;8.914;2022-10-16T02:50:32;14.30;83.80
16032;DHT22;8120;48.308;8.914;2022-10-16T02:53:00;14.10;85.00
16032;DHT22;8120;48.308;8.914;2022-10-16T02:55:28;14.00;86.00
16032;DHT22;8120;48.308;8.914;2022-10-16T02:57:56;13.90;87.00
16032;DHT22;8120;48.308;8.914;2022-10-16T03:00:25;13.80;87.80
16032;DHT22;8120;48.308;8.914;2022-10-16T03:02:53;13.80;87.80
16032;DHT22;8120;48.308;8.914;2022-10-16T03:05:21;13.80;86.90
16032;DHT22;8120;48.308;8.914;2022-10-16T03:07:48;13.90;85.70
16032;DHT22;8120;48.308;8.914;2022-10-16T03:10:16;14.00;84.60
16032;DHT22;8120;48.308;8.914;2022-10-16T03:12:44;14.00;84.60
16032;DHT22;8120;48.308;8.914;2022-10-16T03:15:12;14.00;83.90
16032;DHT22;8120;48.308;8.914;2022-10-16T03:17:41;14.00;83.90
16032;DHT22;8120;48.308;8.914;2022-10-16T03:20:10;14.00;85.00
16032;DHT22;8120;48.308;8.914;2022-10-16T03:22:37;14.10;84.00
16032;DHT22;8120;48.308;8.914;2022-10-16T03:25:06;14.20;83.00
16032;DHT22;8120;48.308;8.914;2022-10-16T03:27:34;14.20;83.50
16032;DHT22;8120;48.308;8.914;2022-10-16T03:30:02;14.20;83.70
16032;DHT22;8120;48.308;8.914;2022-10-16T03:32:30;14.20;82.90
16032;DHT22;8120;48.308;8.914;2022-10-16T03:34:59;14.30;82.50
16032;DHT22;8120;48.308;8.914;2022-10-16T03:37:27;14.40;81.60
16032;DHT22;8120;48.308;8.914;2022-10-16T03:39:55;14.40;81.70
16032;DHT22;8120;48.308;8.914;2022-10-16T03:42:23;14.40;81.00
16032;DHT22;8120;48.308;8.914;2022-10-16T03:44:51;14.50;80.90
16032;DHT22;8120;48.308;8.914;2022-10-16T03:47:18;14.40;81.40
16032;DHT22;8120;48.308;8.914;2022-10-16T03:49:48;14.40;81.50
16032;DHT22;8120;48.308;8.914;2022-10-16T03:52:17;14.40;80.80
16032;DHT22;8120;48.308;8.914;2022-10-16T03:54:50;14.50;80.10
16032;DHT22;8120;48.308;8.914;2022-10-16T03:57:18;14.60;79.90
16032;DHT22;8120;48.308;8.914;2022-10-16T03:59:47;14.70;79.70
16032;DHT22;8120;48.308;8.914;2022-10-16T04:02:15;14.60;80.20
16032;DHT22;8120;48.308;8.914;2022-10-16T04:04:42;14.50;80.60
16032;DHT22;8120;48.308;8.914;2022-10-16T04:07:10;14.40;81.00
16032;DHT22;8120;48.308;8.914;2022-10-16T04:09:39;14.30;82.20
16032;DHT22;8120;48.308;8.914;2022-10-16T04:12:07;14.10;83.30
16032;DHT22;8120;48.308;8.914;2022-10-16T04:14:35;14.00;84.20
16032;DHT22;8120;48.308;8.914;2022-10-16T04:17:03;14.00;84.30
16032;DHT22;8120;48.308;8.914;2022-10-16T04:19:31;14.10;83.60
16032;DHT22;8120;48.308;8.914;2022-10-16T04:21:59;14.20;83.20
16032;DHT22;8120;48.308;8.914;2022-10-16T04:24:26;14.20;82.60
16032;DHT22;8120;48.308;8.914;2022-10-16T04:26:56;14.20;82.10
16032;DHT22;8120;48.308;8.914;2022-10-16T04:29:23;14.20;82.10
16032;DHT22;8120;48.308;8.914;2022-10-16T04:31:51;14.20;81.80
16032;DHT22;8120;48.308;8.914;2022-10-16T04:34:19;14.40;79.90
16032;DHT22;8120;48.308;8.914;2022-10-16T04:36:47;14.70;79.40
16032;DHT22;8120;48.308;8.914;2022-10-16T04:39:16;14.60;79.90
16032;DHT22;8120;48.308;8.914;2022-10-16T04:41:44;14.40;80.50
16032;DHT22;8120;48.308;8.914;2022-10-16T04:44:14;14.30;81.10
16032;DHT22;8120;48.308;8.914;2022-10-16T04:46:41;14.30;80.90
16032;DHT22;8120;48.308;8.914;2022-10-16T04:49:10;14.40;80.10
16032;DHT22;8120;48.308;8.914;2022-10-16T04:51:38;14.50;80.00
16032;DHT22;8120;48.308;8.914;2022-10-16T04:54:06;14.50;80.00
16032;DHT22;8120;48.308;8.914;2022-10-16T04:56:34;14.30;81.50
16032;DHT22;8120;48.308;8.914;2022-10-16T04:59:06;14.20;82.10
16032;DHT22;8120;48.308;8.914;2022-10-16T05:01:35;14.00;83.50
16032;DHT22;8120;48.308;8.914;2022-10-16T05:04:03;13.90;84.30
16032;DHT22;8120;48.308;8.914;2022-10-16T05:06:31;13.70;85.60
16032;DHT22;8120;48.308;8.914;2022-10-16T05:08:59;13.60;86.60
16032;DHT22;8120;48.308;8.914;2022-10-16T05:11:27;13.50;86.80
16032;DHT22;8120;48.308;8.914;2022-10-16T05:13:55;13.50;87.20
16032;DHT22;8120;48.308;8.914;2022-10-16T05:16:23;13.50;86.90
16032;DHT22;8120;48.308;8.914;2022-10-16T05:18:52;13.50;87.40
16032;DHT22;8120;48.308;8.914;2022-10-16T05:21:30;13.40;87.70
16032;DHT22;8120;48.308;8.914;2022-10-16T05:23:57;13.30;89.40
16032;DHT22;8120;48.308;8.914;2022-10-16T05:26:25;13.20;90.00
16032;DHT22;8120;48.308;8.914;2022-10-16T05:28:53;13.10;91.10
16032;DHT22;8120;48.308;8.914;2022-10-16T05:31:21;13.00;92.30
16032;DHT22;8120;48.308;8.914;2022-10-16T05:33:49;13.00;91.80
16032;DHT22;8120;48.308;8.914;2022-10-16T05:36:18;13.00;91.80
16032;DHT22;8120;48.308;8.914;2022-10-16T05:38:45;13.00;92.10
16032;DHT22;8120;48.308;8.914;2022-10-16T05:41:13;13.00;92.50
16032;DHT22;8120;48.308;8.914;2022-10-16T05:43:41;13.00;92.80
16032;DHT22;8120;48.308;8.914;2022-10-16T05:46:09;13.00;92.80
16032;DHT22;8120;48.308;8.914;2022-10-16T05:48:37;13.00;93.30
16032;DHT22;8120;48.308;8.914;2022-10-16T05:51:07;13.00;92.40
16032;DHT22;8120;48.308;8.914;2022-10-16T05:53:39;13.30;88.20
16032;DHT22;8120;48.308;8.914;2022-10-16T05:56:09;13.60;85.90
16032;DHT22;8120;48.308;8.914;2022-10-16T05:58:38;13.80;84.50
16032;DHT22;8120;48.308;8.914;2022-10-16T06:01:09;13.80;84.90
16032;DHT22;8120;48.308;8.914;2022-10-16T06:03:37;13.60;86.90
16032;DHT22;8120;48.308;8.914;2022-10-16T06:06:09;13.50;87.90
16032;DHT22;8120;48.308;8.914;2022-10-16T06:08:39;13.40;89.00
16032;DHT22;8120;48.308;8.914;2022-10-16T06:11:09;13.30;89.40
16032;DHT22;8120;48.308;8.914;2022-10-16T06:13:37;13.30;90.20
16032;DHT22;8120;48.308;8.914;2022-10-16T06:16:09;13.30;90.90
16032;DHT22;8120;48.308;8.914;2022-10-16T06:18:38;13.30;90.80
16032;DHT22;8120;48.308;8.914;2022-10-16T06:21:09;13.40;89.70
16032;DHT22;8120;48.308;8.914;2022-10-16T06:23:39;13.50;89.20
16032;DHT22;8120;48.308;8.914;2022-10-16T06:26:07;13.60;87.50
16032;DHT22;8120;48.308;8.914;2022-10-16T06:28:36;13.70;87.60
16032;DHT22;8120;48.308;8.914;2022-10-16T06:31:05;13.70;88.00
16032;DHT22;8120;48.308;8.914;2022-10-16T06:33:34;13.70;88.20
16032;DHT22;8120;48.308;8.914;2022-10-16T06:36:03;13.80;87.50
16032;DHT22;8120;48.308;8.914;2022-10-16T06:38:32;13.80;86.90
16032;DHT22;8120;48.308;8.914;2022-10-16T06:41:01;13.90;87.20
16032;DHT22;8120;48.308;8.914;2022-10-16T06:43:29;14.00;86.90
16032;DHT22;8120;48.308;8.914;2022-10-16T06:45:59;14.10;86.10
16032;DHT22;8120;48.308;8.914;2022-10-16T06:48:28;14.10;85.60
16032;DHT22;8120;48.308;8.914;2022-10-16T06:50:57;14.20;85.40
16032;DHT22;8120;48.308;8.914;2022-10-16T06:53:27;14.30;85.50
16032;DHT22;8120;48.308;8.914;2022-10-16T06:55:54;14.40;84.30
16032;DHT22;8120;48.308;8.914;2022-10-16T06:58:24;14.40;85.10
16032;DHT22;8120;48.308;8.914;2022-10-16T07:00:55;14.50;83.90
16032;DHT22;8120;48.308;8.914;2022-10-16T07:03:23;14.60;83.90
16032;DHT22;8120;48.308;8.914;2022-10-16T07:05:51;14.60;83.80
16032;DHT22;8120;48.308;8.914;2022-10-16T07:08:19;14.60;85.00
16032;DHT22;8120;48.308;8.914;2022-10-16T07:10:47;14.60;84.30
16032;DHT22;8120;48.308;8.914;2022-10-16T07:13:14;14.60;85.20
16032;DHT22;8120;48.308;8.914;2022-10-16T07:15:44;14.60;84.70
16032;DHT22;8120;48.308;8.914;2022-10-16T07:18:12;14.80;84.50
16032;DHT22;8120;48.308;8.914;2022-10-16T07:20:39;14.90;83.80
16032;DHT22;8120;48.308;8.914;2022-10-16T07:23:07;14.90;83.60
16032;DHT22;8120;48.308;8.914;2022-10-16T07:25:35;15.00;84.20
16032;DHT22;8120;48.308;8.914;2022-10-16T07:28:04;15.00;83.30
16032;DHT22;8120;48.308;8.914;2022-10-16T07:30:34;15.20;82.90
16032;DHT22;8120;48.308;8.914;2022-10-16T07:33:04;15.30;82.50
16032;DHT22;8120;48.308;8.914;2022-10-16T07:35:32;15.40;81.10
16032;DHT22;8120;48.308;8.914;2022-10-16T07:37:59;15.60;81.20
16032;DHT22;8120;48.308;8.914;2022-10-16T07:40:27;15.70;80.70
16032;DHT22;8120;48.308;8.914;2022-10-16T07:42:55;15.80;79.80
16032;DHT22;8120;48.308;8.914;2022-10-16T07:45:23;15.80;79.30
16032;DHT22;8120;48.308;8.914;2022-10-16T07:47:51;15.90;78.50
16032;DHT22;8120;48.308;8.914;2022-10-16T07:50:20;16.00;78.30
16032;DHT22;8120;48.308;8.914;2022-10-16T07:52:48;16.00;78.00
16032;DHT22;8120;48.308;8.914;2022-10-16T07:55:16;16.10;76.10
16032;DHT22;8120;48.308;8.914;2022-10-16T07:57:44;16.40;76.60
16032;DHT22;8120;48.308;8.914;2022-10-16T08:00:12;16.50;77.00
16032;DHT22;8120;48.308;8.914;2022-10-16T08:02:41;16.80;76.40
16032;DHT22;8120;48.308;8.914;2022-10-16T08:05:09;17.00;74.90
16032;DHT22;8120;48.308;8.914;2022-10-16T08:07:38;17.00;74.80
16032;DHT22;8120;48.308;8.914;2022-10-16T08:10:06;17.30;74.80
16032;DHT22;8120;48.308;8.914;2022-10-16T08:12:34;17.40;73.20
16032;DHT22;8120;48.308;8.914;2022-10-16T08:15:02;17.50;73.30
16032;DHT22;8120;48.308;8.914;2022-10-16T08:17:30;17.50;73.90
16032;DHT22;8120;48.308;8.914;2022-10-16T08:19:58;17.70;73.70
16032;DHT22;8120;48.308;8.914;2022-10-16T08:22:25;17.70;73.10
16032;DHT22;8120;48.308;8.914;2022-10-16T08:24:55;17.70;73.40
16032;DHT22;8120;48.308;8.914;2022-10-16T08:27:22;17.80;73.00
16032;DHT22;8120;48.308;8.914;2022-10-16T08:29:51;17.90;72.30
16032;DHT22;8120;48.308;8.914;2022-10-16T08:32:18;18.10;71.40
16032;DHT22;8120;48.308;8.914;2022-10-16T08:34:52;18.40;69.20
16032;DHT22;8120;48.308;8.914;2022-10-16T08:37:20;18.60;66.40
16032;DHT22;8120;48.308;8.914;2022-10-16T08:39:48;18.80;64.80
16032;DHT22;8120;48.308;8.914;2022-10-16T08:42:24;18.90;64.90
16032;DHT22;8120;48.308;8.914;2022-10-16T08:45:19;19.10;63.90
16032;DHT22;8120;48.308;8.914;2022-10-16T08:47:51;19.30;63.10
16032;DHT22;8120;48.308;8.914;2022-10-16T08:50:25;19.50;61.80
16032;DHT22;8120;48.308;8.914;2022-10-16T08:52:55;19.70;61.10
16032;DHT22;8120;48.308;8.914;2022-10-16T08:55:31;19.70;61.40
16032;DHT22;8120;48.308;8.914;2022-10-16T08:58:02;19.60;60.40
16032;DHT22;8120;48.308;8.914;2022-10-16T09:00:37;19.60;60.60
16032;DHT22;8120;48.308;8.914;2022-10-16T09:03:14;19.50;60.80
16032;DHT22;8120;48.308;8.914;2022-10-16T09:06:03;19.40;60.40
16032;DHT22;8120;48.308;8.914;2022-10-16T09:08:41;19.40;60.50
16032;DHT22;8120;48.308;8.914;2022-10-16T09:11:16;19.60;60.90
16032;DHT22;8120;48.308;8.914;2022-10-16T09:13:55;19.60;59.90
16032;DHT22;8120;48.308;8.914;2022-10-16T09:16:29;19.60;59.60
16032;DHT22;8120;48.308;8.914;2022-10-16T09:19:03;19.50;59.50
16032;DHT22;8120;48.308;8.914;2022-10-16T09:21:36;19.60;59.10
16032;DHT22;8120;48.308;8.914;2022-10-16T09:24:11;19.70;59.60
16032;DHT22;8120;48.308;8.914;2022-10-16T09:26:41;19.70;57.50
16032;DHT22;8120;48.308;8.914;2022-10-16T09:29:11;19.70;58.30
16032;DHT22;8120;48.308;8.914;2022-10-16T09:31:40;19.90;58.10
16032;DHT22;8120;48.308;8.914;2022-10-16T09:34:16;20.00;56.90
16032;DHT22;8120;48.308;8.914;2022-10-16T09:36:46;20.10;58.10
16032;DHT22;8120;48.308;8.914;2022-10-16T09:39:14;20.10;56.70
16032;DHT22;8120;48.308;8.914;2022-10-16T09:41:43;20.10;56.90
16032;DHT22;8120;48.308;8.914;2022-10-16T09:44:19;20.20;55.50
16032;DHT22;8120;48.308;8.914;2022-10-16T09:46:48;19.90;54.90
16032;DHT22;8120;48.308;8.914;2022-10-16T09:49:21;19.70;56.10
16032;DHT22;8120;48.308;8.914;2022-10-16T09:51:49;19.70;57.30
16032;DHT22;8120;48.308;8.914;2022-10-16T09:54:19;19.60;56.80
16032;DHT22;8120;48.308;8.914;2022-10-16T09:56:47;19.50;56.40
16032;DHT22;8120;48.308;8.914;2022-10-16T09:59:21;19.40;57.80
16032;DHT22;8120;48.308;8.914;2022-10-16T10:01:52;19.30;57.80
16032;DHT22;8120;48.308;8.914;2022-10-16T10:04:21;19.30;58.00
16032;DHT22;8120;48.308;8.914;2022-10-16T10:06:51;19.40;58.40
16032;DHT22;8120;48.308;8.914;2022-10-16T10:09:22;19.40;58.90
16032;DHT22;8120;48.308;8.914;2022-10-16T10:11:53;19.40;58.20
16032;DHT22;8120;48.308;8.914;2022-10-16T10:14:28;19.50;58.10
16032;DHT22;8120;48.308;8.914;2022-10-16T10:17:13;19.50;58.60
16032;DHT22;8120;48.308;8.914;2022-10-16T10:19:46;19.60;58.50
16032;DHT22;8120;48.308;8.914;2022-10-16T10:22:24;19.50;57.50
16032;DHT22;8120;48.308;8.914;2022-10-16T10:25:01;19.50;57.90
16032;DHT22;8120;48.308;8.914;2022-10-16T10:27:42;19.50;56.90
16032;DHT22;8120;48.308;8.914;2022-10-16T10:30:20;19.60;57.40
16032;DHT22;8120;48.308;8.914;2022-10-16T10:33:01;19.60;57.10
16032;DHT22;8120;48.308;8.914;2022-10-16T10:35:40;19.50;58.00
16032;DHT22;8120;48.308;8.914;2022-10-16T10:38:20;19.60;57.70
16032;DHT22;8120;48.308;8.914;2022-10-16T10:40:55;19.50;57.50
16032;DHT22;8120;48.308;8.914;2022-10-16T10:43:37;19.50;57.80
16032;DHT22;8120;48.308;8.914;2022-10-16T10:46:12;19.60;58.40
16032;DHT22;8120;48.308;8.914;2022-10-16T10:48:52;19.60;56.60
16032;DHT22;8120;48.308;8.914;2022-10-16T10:51:27;19.80;57.50
16032;DHT22;8120;48.308;8.914;2022-10-16T10:54:04;19.90;57.00
16032;DHT22;8120;48.308;8.914;2022-10-16T10:56:47;20.00;56.90
16032;DHT22;8120;48.308;8.914;2022-10-16T11:02:18;20.20;57.30
16032;DHT22;8120;48.308;8.914;2022-10-16T11:07:52;20.80;55.30
16032;DHT22;8120;48.308;8.914;2022-10-16T11:10:23;20.80;54.90
16032;DHT22;8120;48.308;8.914;2022-10-16T11:12:57;20.70;55.20
16032;DHT22;8120;48.308;8.914;2022-10-16T11:15:29;20.90;54.90
16032;DHT22;8120;48.308;8.914;2022-10-16T11:18:05;21.10;53.90
16032;DHT22;8120;48.308;8.914;2022-10-16T11:20:37;21.20;53.60
16032;DHT22;8120;48.308;8.914;2022-10-16T11:23:14;21.40;52.70
16032;DHT22;8120;48.308;8.914;2022-10-16T11:25:43;21.60;52.80
16032;DHT22;8120;48.308;8.914;2022-10-16T11:28:13;21.70;52.10
16032;DHT22;8120;48.308;8.914;2022-10-16T11:30:44;21.70;51.90
16032;DHT22;8120;48.308;8.914;2022-10-16T11:33:32;21.70;50.90
16032;DHT22;8120;48.308;8.914;2022-10-16T11:36:10;21.70;51.00
16032;DHT22;8120;48.308;8.914;2022-10-16T11:38:45;21.70;51.10
16032;DHT22;8120;48.308;8.914;2022-10-16T11:41:21;21.60;51.70
16032;DHT22;8120;48.308;8.914;2022-10-16T11:43:54;21.50;52.10
16032;DHT22;8120;48.308;8.914;2022-10-16T11:46:26;21.70;52.40
16032;DHT22;8120;48.308;8.914;2022-10-16T11:49:02;21.80;52.50
16032;DHT22;8120;48.308;8.914;2022-10-16T11:51:35;21.70;52.60
16032;DHT22;8120;48.308;8.914;2022-10-16T11:54:10;21.90;52.80
16032;DHT22;8120;48.308;8.914;2022-10-16T11:56:43;21.70;51.30
16032;DHT22;8120;48.308;8.914;2022-10-16T11:59:19;21.30;52.10
16032;DHT22;8120;48.308;8.914;2022-10-16T12:01:52;21.10;52.90
16032;DHT22;8120;48.308;8.914;2022-10-16T12:04:28;21.10;52.30
16032;DHT22;8120;48.308;8.914;2022-10-16T12:07:04;21.10;53.10
16032;DHT22;8120;48.308;8.914;2022-10-16T12:09:36;21.10;52.90
16032;DHT22;8120;48.308;8.914;2022-10-16T12:12:05;21.30;52.40
16032;DHT22;8120;48.308;8.914;2022-10-16T12:15:00;21.20;52.10
16032;DHT22;8120;48.308;8.914;2022-10-16T12:17:47;21.20;52.40
16032;DHT22;8120;48.308;8.914;2022-10-16T12:20:23;21.30;54.00
16032;DHT22;8120;48.308;8.914;2022-10-16T12:22:54;21.40;53.90
16032;DHT22;8120;48.308;8.914;2022-10-16T12:25:25;21.70;53.70
16032;DHT22;8120;48.308;8.914;2022-10-16T12:28:00;21.90;54.20
16032;DHT22;8120;48.308;8.914;2022-10-16T12:30:31;22.20;52.70
16032;DHT22;8120;48.308;8.914;2022-10-16T12:33:03;22.50;51.00
16032;DHT22;8120;48.308;8.914;2022-10-16T12:35:34;22.30;50.90
16032;DHT22;8120;48.308;8.914;2022-10-16T12:38:08;22.30;51.30
16032;DHT22;8120;48.308;8.914;2022-10-16T12:40:42;22.60;51.70
16032;DHT22;8120;48.308;8.914;2022-10-16T12:43:12;22.60;50.20
16032;DHT22;8120;48.308;8.914;2022-10-16T12:45:40;22.40;50.90
16032;DHT22;8120;48.308;8.914;2022-10-16T12:48:20;22.30;50.40
16032;DHT22;8120;48.308;8.914;2022-10-16T12:50:56;22.40;51.00
16032;DHT22;8120;48.308;8.914;2022-10-16T12:53:26;22.60;49.80
16032;DHT22;8120;48.308;8.914;2022-10-16T12:56:04;22.80;51.20
16032;DHT22;8120;48.308;8.914;2022-10-16T12:58:44;22.90;50.60
16032;DHT22;8120;48.308;8.914;2022-10-16T13:01:27;23.10;50.10
16032;DHT22;8120;48.308;8.914;2022-10-16T13:04:21;23.30;48.60
16032;DHT22;8120;48.308;8.914;2022-10-16T13:06:57;23.40;48.30
16032;DHT22;8120;48.308;8.914;2022-10-16T13:09:40;23.30;48.70
16032;DHT22;8120;48.308;8.914;2022-10-16T13:12:22;23.30;49.20
16032;DHT22;8120;48.308;8.914;2022-10-16T13:15:05;23.20;49.20
16032;DHT22;8120;48.308;8.914;2022-10-16T13:17:42;23.00;50.00
16032;DHT22;8120;48.308;8.914;2022-10-16T13:20:19;22.90;49.50
16032;DHT22;8120;48.308;8.914;2022-10-16T13:22:57;22.90;49.90
16032;DHT22;8120;48.308;8.914;2022-10-16T13:25:39;22.80;49.60
16032;DHT22;8120;48.308;8.914;2022-10-16T13:28:11;22.70;50.10
16032;DHT22;8120;48.308;8.914;2022-10-16T13:30:41;22.70;50.30
16032;DHT22;8120;48.308;8.914;2022-10-16T13:33:15;22.50;51.00
16032;DHT22;8120;48.308;8.914;2022-10-16T13:35:49;22.40;51.00
16032;DHT22;8120;48.308;8.914;2022-10-16T13:38:20;22.30;52.30
16032;DHT22;8120;48.308;8.914;2022-10-16T13:40:50;22.30;51.80
16032;DHT22;8120;48.308;8.914;2022-10-16T13:43:21;22.40;52.90
16032;DHT22;8120;48.308;8.914;2022-10-16T13:45:57;22.80;51.70
16032;DHT22;8120;48.308;8.914;2022-10-16T13:48:25;23.00;52.00
16032;DHT22;8120;48.308;8.914;2022-10-16T13:51:05;23.10;50.40
16032;DHT22;8120;48.308;8.914;2022-10-16T13:53:35;22.80;51.00
16032;DHT22;8120;48.308;8.914;2022-10-16T13:56:06;22.80;49.70
16032;DHT22;8120;48.308;8.914;2022-10-16T13:58:34;23.10;49.50
16032;DHT22;8120;48.308;8.914;2022-10-16T14:01:04;23.10;49.60
16032;DHT22;8120;48.308;8.914;2022-10-16T14:03:34;23.00;51.30
16032;DHT22;8120;48.308;8.914;2022-10-16T14:06:05;23.10;49.90
16032;DHT22;8120;48.308;8.914;2022-10-16T14:08:36;23.20;50.90
16032;DHT22;8120;48.308;8.914;2022-10-16T14:11:04;23.20;48.80
16032;DHT22;8120;48.308;8.914;2022-10-16T14:13:36;23.10;48.70
16032;DHT22;8120;48.308;8.914;2022-10-16T14:16:07;22.90;53.20
16032;DHT22;8120;48.308;8.914;2022-10-16T14:18:37;22.70;54.10
16032;DHT22;8120;48.308;8.914;2022-10-16T14:21:11;22.70;53.80
16032;DHT22;8120;48.308;8.914;2022-10-16T14:23:41;22.60;53.90
16032;DHT22;8120;48.308;8.914;2022-10-16T14:26:14;22.50;54.40
16032;DHT22;8120;48.308;8.914;2022-10-16T14:28:43;22.40;54.70
16032;DHT22;8120;48.308;8.914;2022-10-16T14:31:25;22.40;54.10
16032;DHT22;8120;48.308;8.914;2022-10-16T14:33:54;22.20;53.80
16032;DHT22;8120;48.308;8.914;2022-10-16T14:36:22;22.20;55.50
16032;DHT22;8120;48.308;8.914;2022-10-16T14:39:00;22.10;54.70
16032;DHT22;8120;48.308;8.914;2022-10-16T14:41:32;22.00;56.00
16032;DHT22;8120;48.308;8.914;2022-10-16T14:44:03;22.00;56.10
16032;DHT22;8120;48.308;8.914;2022-10-16T14:46:34;21.80;54.90
16032;DHT22;8120;48.308;8.914;2022-10-16T14:49:19;21.70;56.30
16032;DHT22;8120;48.308;8.914;2022-10-16T14:51:48;21.70;54.70
16032;DHT22;8120;48.308;8.914;2022-10-16T14:54:18;21.50;55.20
16032;DHT22;8120;48.308;8.914;2022-10-16T14:56:48;21.40;56.10
16032;DHT22;8120;48.308;8.914;2022-10-16T14:59:19;21.40;55.70
16032;DHT22;8120;48.308;8.914;2022-10-16T15:01:49;21.40;56.10
16032;DHT22;8120;48.308;8.914;2022-10-16T15:04:17;21.40;55.50
16032;DHT22;8120;48.308;8.914;2022-10-16T15:06:45;21.40;55.40
16032;DHT22;8120;48.308;8.914;2022-10-16T15:09:13;21.50;55.40
16032;DHT22;8120;48.308;8.914;2022-10-16T15:11:43;21.50;55.10
16032;DHT22;8120;48.308;8.914;2022-10-16T15:14:11;21.40;55.50
16032;DHT22;8120;48.308;8.914;2022-10-16T15:16:45;21.40;56.00
16032;DHT22;8120;48.308;8.914;2022-10-16T15:19:13;21.40;56.60
16032;DHT22;8120;48.308;8.914;2022-10-16T15:21:41;21.30;56.00
16032;DHT22;8120;48.308;8.914;2022-10-16T15:24:12;21.20;57.40
16032;DHT22;8120;48.308;8.914;2022-10-16T15:26:47;21.20;57.70
16032;DHT22;8120;48.308;8.914;2022-10-16T15:29:16;21.10;58.30
16032;DHT22;8120;48.308;8.914;2022-10-16T15:31:43;21.10;58.50
16032;DHT22;8120;48.308;8.914;2022-10-16T15:34:14;21.10;58.70
16032;DHT22;8120;48.308;8.914;2022-10-16T15:36:42;21.00;58.50
16032;DHT22;8120;48.308;8.914;2022-10-16T15:39:13;20.90;59.20
16032;DHT22;8120;48.308;8.914;2022-10-16T15:41:41;20.80;59.40
16032;DHT22;8120;48.308;8.914;2022-10-16T15:44:10;20.70;60.00
16032;DHT22;8120;48.308;8.914;2022-10-16T15:46:38;20.60;59.60
16032;DHT22;8120;48.308;8.914;2022-10-16T15:49:06;20.50;60.80
16032;DHT22;8120;48.308;8.914;2022-10-16T15:51:37;20.30;61.50
16032;DHT22;8120;48.308;8.914;2022-10-16T15:54:05;20.40;61.90
16032;DHT22;8120;48.308;8.914;2022-10-16T15:56:33;20.30;62.60
16032;DHT22;8120;48.308;8.914;2022-10-16T15:59:04;20.20;64.00
16032;DHT22;8120;48.308;8.914;2022-10-16T16:01:33;20.10;65.40
16032;DHT22;8120;48.308;8.914;2022-10-16T16:04:02;19.80;67.30
16032;DHT22;8120;48.308;8.914;2022-10-16T16:06:41;19.60;69.00
16032;DHT22;8120;48.308;8.914;2022-10-16T16:09:12;19.30;70.30
16032;DHT22;8120;48.308;8.914;2022-10-16T16:11:40;19.10;71.40
16032;DHT22;8120;48.308;8.914;2022-10-16T16:14:10;18.80;72.00
16032;DHT22;8120;48.308;8.914;2022-10-16T16:16:40;18.70;72.00